sensor_id;sensor_type;location;lat;lon;timestamp;P1;P2;P0
80394;PMS7003;71133;31.962;118.754;2023-09-19T00:01:51;4.50;4.00;3.00
80394;PMS7003;71133;31.962;118.754;2023-09-19T00:04:18;3.50;3.50;2.00
80394;PMS7003;71133;31.962;118.754;2023-09-19T00:06:49;2.50;2.00;1.75
80394;PMS7003;71133;31.962;118.754;2023-09-19T00:09:16;2.00;2.00;2.00
80394;PMS7003;71133;31.962;118.754;2023-09-19T00:11:43;6.50;6.50;4.25
80394;PMS7003;71133;31.962;118.754;2023-09-19T00:14:13;8.00;5.00;4.00
80394;PMS7003;71133;31.962;118.754;2023-09-19T00:16:40;5.50;5.50;4.00
80394;PMS7003;71133;31.962;118.754;2023-09-19T00:19:07;4.25;3.25;2.25
80394;PMS7003;71133;31.962;118.754;2023-09-19T00:21:34;4.00;3.00;2.00
80394;PMS7003;71133;31.962;118.754;2023-09-19T00:24:04;4.75;3.00;2.00
80394;PMS7003;71133;31.962;118.754;2023-09-19T00:26:32;2.50;2.50;2.00
80394;PMS7003;71133;31.962;118.754;2023-09-19T00:29:00;4.00;2.50;1.25
80394;PMS7003;71133;31.962;118.754;2023-09-19T00:31:34;2.50;2.00;1.00
80394;PMS7003;71133;31.962;118.754;2023-09-19T00:34:06;2.25;1.25;1.00
80394;PMS7003;71133;31.962;118.754;2023-09-19T00:36:36;2.25;2.25;0.75
80394;PMS7003;71133;31.962;118.754;2023-09-19T00:39:06;0.75;0.75;0.50
80394;PMS7003;71133;31.962;118.754;2023-09-19T00:41:34;1.25;1.25;1.00
80394;PMS7003;71133;31.962;118.754;2023-09-19T00:44:04;3.25;2.00;1.00
80394;PMS7003;71133;31.962;118.754;2023-09-19T00:46:31;0.75;0.75;0.00
80394;PMS7003;71133;31.962;118.754;2023-09-19T00:48:59;1.75;1.00;0.50
80394;PMS7003;71133;31.962;118.754;2023-09-19T00:51:26;1.00;1.00;0.00
80394;PMS7003;71133;31.962;118.754;2023-09-19T00:53:55;2.25;1.50;1.00
80394;PMS7003;71133;31.962;118.754;2023-09-19T00:56:24;1.75;1.75;1.00
80394;PMS7003;71133;31.962;118.754;2023-09-19T00:58:52;3.00;1.25;0.50
80394;PMS7003;71133;31.962;118.754;2023-09-19T01:01:19;2.00;0.75;0.25
80394;PMS7003;71133;31.962;118.754;2023-09-19T01:03:46;0.25;0.25;0.25
80394;PMS7003;71133;31.962;118.754;2023-09-19T01:06:14;2.25;1.00;0.00
80394;PMS7003;71133;31.962;118.754;2023-09-19T01:08:43;0.25;0.25;0.00
80394;PMS7003;71133;31.962;118.754;2023-09-19T01:17:05;0.00;0.00;0.00
80394;PMS7003;71133;31.962;118.754;2023-09-19T01:22:46;1.00;1.00;0.25
80394;PMS7003;71133;31.962;118.754;2023-09-19T01:31:02;1.00;1.00;0.25
80394;PMS7003;71133;31.962;118.754;2023-09-19T01:36:27;0.75;0.75;0.50
80394;PMS7003;71133;31.962;118.754;2023-09-19T01:38:55;1.00;1.00;0.50
80394;PMS7003;71133;31.962;118.754;2023-09-19T01:42:14;4.00;4.00;3.00
80394;PMS7003;71133;31.962;118.754;2023-09-19T01:47:23;1.00;1.00;0.00
80394;PMS7003;71133;31.962;118.754;2023-09-19T01:52:36;2.50;1.50;1.00
80394;PMS7003;71133;31.962;118.754;2023-09-19T01:55:12;1.75;1.75;0.75
80394;PMS7003;71133;31.962;118.754;2023-09-19T01:58:06;1.00;1.00;1.00
80394;PMS7003;71133;31.962;118.754;2023-09-19T02:00:36;1.50;1.00;1.00
80394;PMS7003;71133;31.962;118.754;2023-09-19T02:03:08;2.25;2.25;2.00
80394;PMS7003;71133;31.962;118.754;2023-09-19T02:05:36;5.75;4.00;2.75
80394;PMS7003;71133;31.962;118.754;2023-09-19T02:08:05;3.25;3.25;2.00
80394;PMS7003;71133;31.962;118.754;2023-09-19T02:10:32;2.00;2.00;1.50
80394;PMS7003;71133;31.962;118.754;2023-09-19T02:12:59;2.00;2.00;1.00
80394;PMS7003;71133;31.962;118.754;2023-09-19T02:15:29;1.00;1.00;0.50
80394;PMS7003;71133;31.962;118.754;2023-09-19T02:17:59;3.00;2.00;1.75
80394;PMS7003;71133;31.962;118.754;2023-09-19T02:20:29;1.00;1.00;1.00
80394;PMS7003;71133;31.962;118.754;2023-09-19T02:22:58;2.00;1.00;0.25
80394;PMS7003;71133;31.962;118.754;2023-09-19T02:25:26;1.25;1.25;0.00
80394;PMS7003;71133;31.962;118.754;2023-09-19T02:27:53;1.25;1.25;1.00
80394;PMS7003;71133;31.962;118.754;2023-09-19T02:30:24;2.00;2.00;1.25
80394;PMS7003;71133;31.962;118.754;2023-09-19T02:32:51;0.50;0.50;0.00
80394;PMS7003;71133;31.962;118.754;2023-09-19T02:35:19;1.00;1.00;1.00
80394;PMS7003;71133;31.962;118.754;2023-09-19T02:37:46;3.00;1.50;1.25
80394;PMS7003;71133;31.962;118.754;2023-09-19T02:40:13;1.00;1.00;0.25
80394;PMS7003;71133;31.962;118.754;2023-09-19T02:42:55;1.75;1.00;0.00
80394;PMS7003;71133;31.962;118.754;2023-09-19T02:45:24;1.50;1.50;1.00
80394;PMS7003;71133;31.962;118.754;2023-09-19T02:47:51;1.00;1.00;1.00
80394;PMS7003;71133;31.962;118.754;2023-09-19T02:50:18;1.00;1.00;1.00
80394;PMS7003;71133;31.962;118.754;2023-09-19T02:52:46;1.00;1.00;0.50
80394;PMS7003;71133;31.962;118.754;2023-09-19T02:55:17;0.00;0.00;0.00
80394;PMS7003;71133;31.962;118.754;2023-09-19T02:57:50;0.50;0.50;0.00
80394;PMS7003;71133;31.962;118.754;2023-09-19T03:00:22;1.00;1.00;0.25
80394;PMS7003;71133;31.962;118.754;2023-09-19T03:02:50;0.25;0.25;0.00
80394;PMS7003;71133;31.962;118.754;2023-09-19T03:05:20;1.00;1.00;0.25
80394;PMS7003;71133;31.962;118.754;2023-09-19T03:07:49;1.00;1.00;1.00
80394;PMS7003;71133;31.962;118.754;2023-09-19T03:10:17;0.00;0.00;0.00
80394;PMS7003;71133;31.962;118.754;2023-09-19T03:12:44;1.00;1.00;0.00
80394;PMS7003;71133;31.962;118.754;2023-09-19T03:15:14;0.25;0.00;0.00
80394;PMS7003;71133;31.962;118.754;2023-09-19T03:17:43;1.00;1.00;0.25
80394;PMS7003;71133;31.962;118.754;2023-09-19T03:20:13;1.00;1.00;0.00
80394;PMS7003;71133;31.962;118.754;2023-09-19T03:22:43;0.25;0.25;0.00
80394;PMS7003;71133;31.962;118.754;2023-09-19T03:25:11;2.00;0.00;0.00
80394;PMS7003;71133;31.962;118.754;2023-09-19T03:27:40;2.50;1.00;0.00
80394;PMS7003;71133;31.962;118.754;2023-09-19T03:30:07;1.00;0.00;0.00
80394;PMS7003;71133;31.962;118.754;2023-09-19T03:32:43;0.50;0.50;0.25
80394;PMS7003;71133;31.962;118.754;2023-09-19T03:35:11;1.50;1.00;0.75
80394;PMS7003;71133;31.962;118.754;2023-09-19T03:37:40;0.00;0.00;0.00
80394;PMS7003;71133;31.962;118.754;2023-09-19T03:40:08;0.00;0.00;0.00
80394;PMS7003;71133;31.962;118.754;2023-09-19T03:42:39;0.75;0.75;0.00
80394;PMS7003;71133;31.962;118.754;2023-09-19T03:45:08;0.00;0.00;0.00
80394;PMS7003;71133;31.962;118.754;2023-09-19T03:47:38;2.00;0.25;0.00
80394;PMS7003;71133;31.962;118.754;2023-09-19T03:50:06;2.00;1.00;0.00
80394;PMS7003;71133;31.962;118.754;2023-09-19T03:52:36;0.00;0.00;0.00
80394;PMS7003;71133;31.962;118.754;2023-09-19T03:55:03;0.00;0.00;0.00
80394;PMS7003;71133;31.962;118.754;2023-09-19T03:57:31;2.00;2.00;1.00
80394;PMS7003;71133;31.962;118.754;2023-09-19T04:00:02;0.00;0.00;0.00
80394;PMS7003;71133;31.962;118.754;2023-09-19T04:02:38;0.00;0.00;0.00
80394;PMS7003;71133;31.962;118.754;2023-09-19T04:05:06;0.00;0.00;0.00
80394;PMS7003;71133;31.962;118.754;2023-09-19T04:07:33;0.50;0.00;0.00
80394;PMS7003;71133;31.962;118.754;2023-09-19T04:10:00;0.00;0.00;0.00
80394;PMS7003;71133;31.962;118.754;2023-09-19T04:12:27;0.00;0.00;0.00
80394;PMS7003;71133;31.962;118.754;2023-09-19T04:14:54;0.25;0.25;0.00
80394;PMS7003;71133;31.962;118.754;2023-09-19T04:17:22;0.00;0.00;0.00
80394;PMS7003;71133;31.962;118.754;2023-09-19T04:19:49;0.00;0.00;0.00
80394;PMS7003;71133;31.962;118.754;2023-09-19T04:22:16;0.00;0.00;0.00
80394;PMS7003;71133;31.962;118.754;2023-09-19T04:24:43;0.00;0.00;0.00
80394;PMS7003;71133;31.962;118.754;2023-09-19T04:27:10;0.00;0.00;0.00
80394;PMS7003;71133;31.962;118.754;2023-09-19T04:29:40;0.00;0.00;0.00
80394;PMS7003;71133;31.962;118.754;2023-09-19T04:32:08;0.00;0.00;0.00
80394;PMS7003;71133;31.962;118.754;2023-09-19T04:34:35;0.00;0.00;0.00
80394;PMS7003;71133;31.962;118.754;2023-09-19T04:37:06;0.00;0.00;0.00
80394;PMS7003;71133;31.962;118.754;2023-09-19T04:39:36;0.00;0.00;0.00
80394;PMS7003;71133;31.962;118.754;2023-09-19T04:42:04;2.00;0.00;0.00
80394;PMS7003;71133;31.962;118.754;2023-09-19T04:44:31;0.00;0.00;0.00
80394;PMS7003;71133;31.962;118.754;2023-09-19T04:46:58;0.00;0.00;0.00
80394;PMS7003;71133;31.962;118.754;2023-09-19T04:49:25;0.00;0.00;0.00
80394;PMS7003;71133;31.962;118.754;2023-09-19T04:51:52;0.00;0.00;0.00
80394;PMS7003;71133;31.962;118.754;2023-09-19T04:54:21;0.50;0.50;0.25
80394;PMS7003;71133;31.962;118.754;2023-09-19T04:56:48;0.00;0.00;0.00
80394;PMS7003;71133;31.962;118.754;2023-09-19T04:59:16;0.00;0.00;0.00
80394;PMS7003;71133;31.962;118.754;2023-09-19T05:01:43;0.00;0.00;0.00
80394;PMS7003;71133;31.962;118.754;2023-09-19T05:04:10;0.00;0.00;0.00
80394;PMS7003;71133;31.962;118.754;2023-09-19T05:06:37;1.00;0.00;0.00
80394;PMS7003;71133;31.962;118.754;2023-09-19T05:09:04;0.00;0.00;0.00
80394;PMS7003;71133;31.962;118.754;2023-09-19T05:11:31;0.00;0.00;0.00
80394;PMS7003;71133;31.962;118.754;2023-09-19T05:13:59;1.00;0.00;0.00
80394;PMS7003;71133;31.962;118.754;2023-09-19T05:16:29;0.00;0.00;0.00
80394;PMS7003;71133;31.962;118.754;2023-09-19T05:18:57;0.00;0.00;0.00
80394;PMS7003;71133;31.962;118.754;2023-09-19T05:21:26;1.00;0.00;0.00
80394;PMS7003;71133;31.962;118.754;2023-09-19T05:23:56;0.00;0.00;0.00
80394;PMS7003;71133;31.962;118.754;2023-09-19T05:26:23;0.00;0.00;0.00
80394;PMS7003;71133;31.962;118.754;2023-09-19T05:28:50;0.00;0.00;0.00
80394;PMS7003;71133;31.962;118.754;2023-09-19T05:31:18;0.00;0.00;0.00
80394;PMS7003;71133;31.962;118.754;2023-09-19T05:33:46;0.00;0.00;0.00
80394;PMS7003;71133;31.962;118.754;2023-09-19T05:36:13;0.00;0.00;0.00
80394;PMS7003;71133;31.962;118.754;2023-09-19T05:38:42;0.00;0.00;0.00
80394;PMS7003;71133;31.962;118.754;2023-09-19T05:41:10;0.00;0.00;0.00
80394;PMS7003;71133;31.962;118.754;2023-09-19T05:43:39;0.50;0.00;0.00
80394;PMS7003;71133;31.962;118.754;2023-09-19T05:46:09;0.00;0.00;0.00
80394;PMS7003;71133;31.962;118.754;2023-09-19T05:48:36;1.25;1.25;1.00
80394;PMS7003;71133;31.962;118.754;2023-09-19T05:51:05;1.00;1.00;1.00
80394;PMS7003;71133;31.962;118.754;2023-09-19T05:53:32;0.75;0.75;0.25
80394;PMS7003;71133;31.962;118.754;2023-09-19T05:55:59;1.25;1.00;0.00
80394;PMS7003;71133;31.962;118.754;2023-09-19T05:58:26;0.00;0.00;0.00
80394;PMS7003;71133;31.962;118.754;2023-09-19T06:00:54;0.00;0.00;0.00
80394;PMS7003;71133;31.962;118.754;2023-09-19T06:03:21;0.00;0.00;0.00
80394;PMS7003;71133;31.962;118.754;2023-09-19T06:05:48;0.75;0.00;0.00
80394;PMS7003;71133;31.962;118.754;2023-09-19T06:08:16;0.00;0.00;0.00
80394;PMS7003;71133;31.962;118.754;2023-09-19T06:10:43;0.00;0.00;0.00
80394;PMS7003;71133;31.962;118.754;2023-09-19T06:13:12;0.00;0.00;0.00
80394;PMS7003;71133;31.962;118.754;2023-09-19T06:15:39;0.00;0.00;0.00
80394;PMS7003;71133;31.962;118.754;2023-09-19T06:18:12;0.00;0.00;0.00
80394;PMS7003;71133;31.962;118.754;2023-09-19T06:20:42;0.00;0.00;0.00
80394;PMS7003;71133;31.962;118.754;2023-09-19T06:23:13;0.00;0.00;0.00
80394;PMS7003;71133;31.962;118.754;2023-09-19T06:25:40;0.00;0.00;0.00
80394;PMS7003;71133;31.962;118.754;2023-09-19T06:28:08;1.00;0.00;0.00
80394;PMS7003;71133;31.962;118.754;2023-09-19T06:30:38;1.75;0.00;0.00
80394;PMS7003;71133;31.962;118.754;2023-09-19T06:33:08;0.00;0.00;0.00
80394;PMS7003;71133;31.962;118.754;2023-09-19T06:35:40;2.00;2.00;1.00
80394;PMS7003;71133;31.962;118.754;2023-09-19T06:38:07;2.00;2.00;1.00
80394;PMS7003;71133;31.962;118.754;2023-09-19T06:40:36;2.50;1.75;1.50
80394;PMS7003;71133;31.962;118.754;2023-09-19T06:43:04;2.00;2.00;1.50
80394;PMS7003;71133;31.962;118.754;2023-09-19T06:45:31;2.00;2.00;1.75
80394;PMS7003;71133;31.962;118.754;2023-09-19T06:47:58;2.25;2.25;1.75
80394;PMS7003;71133;31.962;118.754;2023-09-19T06:50:28;1.00;1.00;1.00
80394;PMS7003;71133;31.962;118.754;2023-09-19T06:52:57;2.00;1.75;1.00
80394;PMS7003;71133;31.962;118.754;2023-09-19T06:55:26;3.00;3.00;1.75
80394;PMS7003;71133;31.962;118.754;2023-09-19T06:57:56;2.00;2.00;1.00
80394;PMS7003;71133;31.962;118.754;2023-09-19T07:00:24;3.00;1.50;1.00
80394;PMS7003;71133;31.962;118.754;2023-09-19T07:03:09;2.50;2.50;1.75
80394;PMS7003;71133;31.962;118.754;2023-09-19T07:05:40;1.75;1.75;1.00
80394;PMS7003;71133;31.962;118.754;2023-09-19T07:08:09;1.00;1.00;1.00
80394;PMS7003;71133;31.962;118.754;2023-09-19T07:10:38;1.25;1.25;1.00
80394;PMS7003;71133;31.962;118.754;2023-09-19T07:13:15;0.25;0.00;0.00
80394;PMS7003;71133;31.962;118.754;2023-09-19T07:15:45;2.00;0.00;0.00
80394;PMS7003;71133;31.962;118.754;2023-09-19T07:18:13;3.25;2.00;1.00
80394;PMS7003;71133;31.962;118.754;2023-09-19T07:20:42;2.00;1.25;0.75
80394;PMS7003;71133;31.962;118.754;2023-09-19T07:23:17;1.25;0.00;0.00
80394;PMS7003;71133;31.962;118.754;2023-09-19T07:25:46;1.00;1.00;1.00
80394;PMS7003;71133;31.962;118.754;2023-09-19T07:28:14;1.50;1.00;1.00
80394;PMS7003;71133;31.962;118.754;2023-09-19T07:30:41;1.00;0.00;0.00
80394;PMS7003;71133;31.962;118.754;2023-09-19T07:33:09;1.75;1.00;0.25
80394;PMS7003;71133;31.962;118.754;2023-09-19T07:35:39;0.00;0.00;0.00
80394;PMS7003;71133;31.962;118.754;2023-09-19T07:38:06;0.25;0.25;0.00
80394;PMS7003;71133;31.962;118.754;2023-09-19T07:40:36;1.75;0.00;0.00
80394;PMS7003;71133;31.962;118.754;2023-09-19T07:43:03;0.50;0.50;0.00
80394;PMS7003;71133;31.962;118.754;2023-09-19T07:45:32;1.00;1.00;0.00
80394;PMS7003;71133;31.962;118.754;2023-09-19T07:48:02;2.00;1.00;1.00
80394;PMS7003;71133;31.962;118.754;2023-09-19T07:50:39;0.50;0.00;0.00
80394;PMS7003;71133;31.962;118.754;2023-09-19T07:53:08;0.25;0.25;0.00
80394;PMS7003;71133;31.962;118.754;2023-09-19T07:55:39;0.25;0.25;0.00
80394;PMS7003;71133;31.962;118.754;2023-09-19T07:58:06;0.50;0.50;0.00
80394;PMS7003;71133;31.962;118.754;2023-09-19T08:00:36;2.00;2.00;1.25
80394;PMS7003;71133;31.962;118.754;2023-09-19T08:03:04;1.75;1.50;1.50
80394;PMS7003;71133;31.962;118.754;2023-09-19T08:05:31;4.75;3.00;2.00
80394;PMS7003;71133;31.962;118.754;2023-09-19T08:07:59;3.25;1.00;1.00
80394;PMS7003;71133;31.962;118.754;2023-09-19T08:10:26;3.25;2.75;2.00
80394;PMS7003;71133;31.962;118.754;2023-09-19T08:13:00;4.75;1.50;1.00
80394;PMS7003;71133;31.962;118.754;2023-09-19T08:15:31;3.00;3.00;2.00
80394;PMS7003;71133;31.962;118.754;2023-09-19T08:17:58;4.50;3.75;2.75
80394;PMS7003;71133;31.962;118.754;2023-09-19T08:20:25;8.00;5.75;3.50
80394;PMS7003;71133;31.962;118.754;2023-09-19T08:22:53;12.50;7.50;4.00
80394;PMS7003;71133;31.962;118.754;2023-09-19T08:25:23;9.25;6.50;4.75
80394;PMS7003;71133;31.962;118.754;2023-09-19T08:27:54;10.00;9.00;6.00
80394;PMS7003;71133;31.962;118.754;2023-09-19T08:30:23;13.00;9.75;6.50
80394;PMS7003;71133;31.962;118.754;2023-09-19T08:32:59;9.00;8.75;5.75
80394;PMS7003;71133;31.962;118.754;2023-09-19T08:35:27;10.75;8.00;5.00
80394;PMS7003;71133;31.962;118.754;2023-09-19T08:37:54;10.50;9.00;6.00
80394;PMS7003;71133;31.962;118.754;2023-09-19T08:40:22;15.25;9.25;6.00
80394;PMS7003;71133;31.962;118.754;2023-09-19T08:42:50;9.00;7.75;4.50
80394;PMS7003;71133;31.962;118.754;2023-09-19T08:45:20;6.75;6.50;4.00
80394;PMS7003;71133;31.962;118.754;2023-09-19T08:47:59;5.50;5.00;3.00
80394;PMS7003;71133;31.962;118.754;2023-09-19T08:50:42;4.75;4.00;3.00
80394;PMS7003;71133;31.962;118.754;2023-09-19T08:53:16;6.50;6.00;4.50
80394;PMS7003;71133;31.962;118.754;2023-09-19T08:56:09;5.75;5.00;3.25
80394;PMS7003;71133;31.962;118.754;2023-09-19T08:58:40;9.25;7.25;4.25
80394;PMS7003;71133;31.962;118.754;2023-09-19T09:01:16;13.25;10.00;7.50
80394;PMS7003;71133;31.962;118.754;2023-09-19T09:03:54;18.00;11.00;7.00
80394;PMS7003;71133;31.962;118.754;2023-09-19T09:06:22;9.50;9.00;5.00
80394;PMS7003;71133;31.962;118.754;2023-09-19T09:08:50;9.00;8.00;5.00
80394;PMS7003;71133;31.962;118.754;2023-09-19T09:11:18;7.75;6.50;4.50
80394;PMS7003;71133;31.962;118.754;2023-09-19T09:13:46;8.75;6.75;5.00
80394;PMS7003;71133;31.962;118.754;2023-09-19T09:16:14;10.75;9.00;5.00
80394;PMS7003;71133;31.962;118.754;2023-09-19T09:18:44;5.00;5.00;3.00
80394;PMS7003;71133;31.962;118.754;2023-09-19T09:21:23;5.75;5.00;3.00
80394;PMS7003;71133;31.962;118.754;2023-09-19T09:26:59;3.00;3.00;2.25
80394;PMS7003;71133;31.962;118.754;2023-09-19T09:29:41;6.00;4.00;3.00
80394;PMS7003;71133;31.962;118.754;2023-09-19T09:32:18;7.00;7.00;3.75
80394;PMS7003;71133;31.962;118.754;2023-09-19T09:34:52;5.00;5.00;3.25
80394;PMS7003;71133;31.962;118.754;2023-09-19T09:37:21;10.25;10.25;6.25
80394;PMS7003;71133;31.962;118.754;2023-09-19T09:39:54;14.00;13.50;8.25
80394;PMS7003;71133;31.962;118.754;2023-09-19T09:42:33;19.75;18.50;11.50
80394;PMS7003;71133;31.962;118.754;2023-09-19T09:47:59;19.75;16.00;11.00
80394;PMS7003;71133;31.962;118.754;2023-09-19T09:50:46;14.00;13.00;8.75
80394;PMS7003;71133;31.962;118.754;2023-09-19T09:53:20;15.00;12.25;8.50
80394;PMS7003;71133;31.962;118.754;2023-09-19T09:58:38;15.25;14.75;9.50
80394;PMS7003;71133;31.962;118.754;2023-09-19T10:01:24;12.75;10.75;6.75
80394;PMS7003;71133;31.962;118.754;2023-09-19T10:04:26;11.00;9.75;6.75
80394;PMS7003;71133;31.962;118.754;2023-09-19T10:07:01;12.25;12.25;6.50
80394;PMS7003;71133;31.962;118.754;2023-09-19T10:09:44;11.75;11.75;6.25
80394;PMS7003;71133;31.962;118.754;2023-09-19T10:12:12;15.50;11.25;7.50
80394;PMS7003;71133;31.962;118.754;2023-09-19T10:14:42;11.50;10.50;6.25
80394;PMS7003;71133;31.962;118.754;2023-09-19T10:17:12;14.75;11.75;6.00
80394;PMS7003;71133;31.962;118.754;2023-09-19T10:19:55;14.00;12.00;7.00
80394;PMS7003;71133;31.962;118.754;2023-09-19T10:22:34;13.75;10.00;5.75
80394;PMS7003;71133;31.962;118.754;2023-09-19T10:25:04;8.00;8.00;5.00
80394;PMS7003;71133;31.962;118.754;2023-09-19T10:27:34;9.25;7.75;4.25
80394;PMS7003;71133;31.962;118.754;2023-09-19T10:30:04;6.75;5.00;3.00
80394;PMS7003;71133;31.962;118.754;2023-09-19T10:32:36;9.00;7.25;5.00
80394;PMS7003;71133;31.962;118.754;2023-09-19T10:35:07;7.00;6.00;4.00
80394;PMS7003;71133;31.962;118.754;2023-09-19T10:37:38;7.00;7.00;4.00
80394;PMS7003;71133;31.962;118.754;2023-09-19T10:40:07;8.00;5.00;3.75
80394;PMS7003;71133;31.962;118.754;2023-09-19T10:42:38;6.00;5.75;3.75
80394;PMS7003;71133;31.962;118.754;2023-09-19T10:45:08;7.00;5.00;3.25
80394;PMS7003;71133;31.962;118.754;2023-09-19T10:47:39;6.75;6.75;4.75
80394;PMS7003;71133;31.962;118.754;2023-09-19T10:50:06;8.50;7.50;5.00
80394;PMS7003;71133;31.962;118.754;2023-09-19T10:52:37;6.75;5.25;3.50
80394;PMS7003;71133;31.962;118.754;2023-09-19T10:55:08;5.50;4.25;2.50
80394;PMS7003;71133;31.962;118.754;2023-09-19T10:57:44;1.50;1.00;0.00
80394;PMS7003;71133;31.962;118.754;2023-09-19T11:00:13;4.75;4.00;3.00
80394;PMS7003;71133;31.962;118.754;2023-09-19T11:05:38;6.00;5.75;4.00
80394;PMS7003;71133;31.962;118.754;2023-09-19T11:08:07;5.00;5.00;4.00
80394;PMS7003;71133;31.962;118.754;2023-09-19T11:10:48;5.00;5.00;3.00
80394;PMS7003;71133;31.962;118.754;2023-09-19T11:16:03;8.50;7.00;4.75
80394;PMS7003;71133;31.962;118.754;2023-09-19T11:27:14;6.25;5.25;4.50
80394;PMS7003;71133;31.962;118.754;2023-09-19T11:29:44;7.00;6.00;4.75
80394;PMS7003;71133;31.962;118.754;2023-09-19T11:32:11;6.50;6.00;4.50
80394;PMS7003;71133;31.962;118.754;2023-09-19T11:34:43;7.00;7.00;5.00
80394;PMS7003;71133;31.962;118.754;2023-09-19T11:42:43;6.50;6.00;4.00
80394;PMS7003;71133;31.962;118.754;2023-09-19T11:48:06;5.00;5.00;4.00
80394;PMS7003;71133;31.962;118.754;2023-09-19T11:50:34;6.50;5.25;3.75
80394;PMS7003;71133;31.962;118.754;2023-09-19T11:53:03;5.00;5.00;4.00
80394;PMS7003;71133;31.962;118.754;2023-09-19T11:55:31;5.00;5.00;3.00
80394;PMS7003;71133;31.962;118.754;2023-09-19T11:57:59;5.75;4.25;3.00
80394;PMS7003;71133;31.962;118.754;2023-09-19T12:00:28;4.75;4.00;2.25
80394;PMS7003;71133;31.962;118.754;2023-09-19T12:02:56;3.00;2.00;2.00
80394;PMS7003;71133;31.962;118.754;2023-09-19T12:05:35;4.00;4.00;2.75
80394;PMS7003;71133;31.962;118.754;2023-09-19T12:08:03;4.00;4.00;3.00
80394;PMS7003;71133;31.962;118.754;2023-09-19T12:10:50;4.00;4.00;3.00
80394;PMS7003;71133;31.962;118.754;2023-09-19T12:13:18;4.25;3.50;2.50
80394;PMS7003;71133;31.962;118.754;2023-09-19T12:15:46;3.75;3.75;2.00
80394;PMS7003;71133;31.962;118.754;2023-09-19T12:18:27;3.50;3.50;2.25
80394;PMS7003;71133;31.962;118.754;2023-09-19T12:20:55;5.00;3.75;3.00
80394;PMS7003;71133;31.962;118.754;2023-09-19T12:23:23;3.25;2.75;1.25
80394;PMS7003;71133;31.962;118.754;2023-09-19T12:25:54;5.00;3.25;2.50
80394;PMS7003;71133;31.962;118.754;2023-09-19T12:28:23;4.00;4.00;3.00
80394;PMS7003;71133;31.962;118.754;2023-09-19T12:31:05;5.00;5.00;4.00
80394;PMS7003;71133;31.962;118.754;2023-09-19T12:33:34;3.75;3.75;2.25
80394;PMS7003;71133;31.962;118.754;2023-09-19T12:36:19;4.00;4.00;2.75
80394;PMS7003;71133;31.962;118.754;2023-09-19T12:38:54;2.00;1.75;1.00
80394;PMS7003;71133;31.962;118.754;2023-09-19T12:41:21;4.00;4.00;3.50
80394;PMS7003;71133;31.962;118.754;2023-09-19T12:43:49;4.00;4.00;3.00
80394;PMS7003;71133;31.962;118.754;2023-09-19T12:46:22;4.00;3.25;2.25
80394;PMS7003;71133;31.962;118.754;2023-09-19T12:51:48;3.75;3.75;2.50
80394;PMS7003;71133;31.962;118.754;2023-09-19T12:54:16;3.50;3.00;2.00
80394;PMS7003;71133;31.962;118.754;2023-09-19T12:56:44;3.00;3.00;2.00
80394;PMS7003;71133;31.962;118.754;2023-09-19T12:59:13;3.75;3.00;2.25
80394;PMS7003;71133;31.962;118.754;2023-09-19T13:01:41;4.00;3.00;2.00
80394;PMS7003;71133;31.962;118.754;2023-09-19T13:06:47;3.00;3.00;2.00
80394;PMS7003;71133;31.962;118.754;2023-09-19T13:09:17;2.00;2.00;1.75
80394;PMS7003;71133;31.962;118.754;2023-09-19T13:11:46;4.00;4.00;3.00
80394;PMS7003;71133;31.962;118.754;2023-09-19T13:14:25;4.50;3.00;2.00
80394;PMS7003;71133;31.962;118.754;2023-09-19T13:25:17;3.00;3.00;1.25
80394;PMS7003;71133;31.962;118.754;2023-09-19T13:27:56;2.00;2.00;1.25
80394;PMS7003;71133;31.962;118.754;2023-09-19T13:30:26;3.00;3.00;2.00
80394;PMS7003;71133;31.962;118.754;2023-09-19T13:33:09;4.00;3.00;2.00
80394;PMS7003;71133;31.962;118.754;2023-09-19T13:35:39;3.00;3.00;2.00
80394;PMS7003;71133;31.962;118.754;2023-09-19T13:38:07;3.75;2.75;2.00
80394;PMS7003;71133;31.962;118.754;2023-09-19T13:40:38;2.25;2.00;1.75
80394;PMS7003;71133;31.962;118.754;2023-09-19T13:43:07;5.00;3.50;2.00
80394;PMS7003;71133;31.962;118.754;2023-09-19T13:45:37;3.75;3.00;2.50
80394;PMS7003;71133;31.962;118.754;2023-09-19T13:48:08;2.00;2.00;2.00
80394;PMS7003;71133;31.962;118.754;2023-09-19T13:50:38;3.00;3.00;2.00
80394;PMS7003;71133;31.962;118.754;2023-09-19T13:53:08;3.25;3.00;2.00
80394;PMS7003;71133;31.962;118.754;2023-09-19T13:55:38;4.00;2.75;2.00
80394;PMS7003;71133;31.962;118.754;2023-09-19T13:58:06;3.00;2.25;2.00
80394;PMS7003;71133;31.962;118.754;2023-09-19T14:00:36;6.00;4.25;3.00
80394;PMS7003;71133;31.962;118.754;2023-09-19T14:03:04;3.50;2.50;1.75
80394;PMS7003;71133;31.962;118.754;2023-09-19T14:05:32;2.50;2.50;2.00
80394;PMS7003;71133;31.962;118.754;2023-09-19T14:08:01;2.25;2.25;2.00
80394;PMS7003;71133;31.962;118.754;2023-09-19T14:10:30;3.00;2.00;1.25
80394;PMS7003;71133;31.962;118.754;2023-09-19T14:12:58;4.00;3.25;2.50
80394;PMS7003;71133;31.962;118.754;2023-09-19T14:15:26;2.50;2.50;2.00
80394;PMS7003;71133;31.962;118.754;2023-09-19T14:17:58;1.50;1.50;1.00
80394;PMS7003;71133;31.962;118.754;2023-09-19T14:20:27;2.00;2.00;1.25
80394;PMS7003;71133;31.962;118.754;2023-09-19T14:22:57;2.00;2.00;1.00
80394;PMS7003;71133;31.962;118.754;2023-09-19T14:25:31;3.00;2.75;2.00
80394;PMS7003;71133;31.962;118.754;2023-09-19T14:28:02;2.00;2.00;1.75
80394;PMS7003;71133;31.962;118.754;2023-09-19T14:30:29;3.00;3.00;2.00
80394;PMS7003;71133;31.962;118.754;2023-09-19T14:32:58;1.25;1.25;1.00
80394;PMS7003;71133;31.962;118.754;2023-09-19T14:35:25;2.75;2.75;2.00
80394;PMS7003;71133;31.962;118.754;2023-09-19T14:37:53;2.50;2.50;2.00
80394;PMS7003;71133;31.962;118.754;2023-09-19T14:40:20;2.00;2.00;1.25
80394;PMS7003;71133;31.962;118.754;2023-09-19T14:42:48;3.00;1.75;1.00
80394;PMS7003;71133;31.962;118.754;2023-09-19T14:45:16;4.00;2.00;1.50
80394;PMS7003;71133;31.962;118.754;2023-09-19T14:47:45;1.50;1.50;0.50
80394;PMS7003;71133;31.962;118.754;2023-09-19T14:50:16;3.00;3.00;1.75
80394;PMS7003;71133;31.962;118.754;2023-09-19T14:52:43;2.75;1.75;1.75
80394;PMS7003;71133;31.962;118.754;2023-09-19T14:55:11;4.00;2.50;1.25
80394;PMS7003;71133;31.962;118.754;2023-09-19T14:57:40;3.50;2.25;1.50
80394;PMS7003;71133;31.962;118.754;2023-09-19T15:00:10;4.00;2.50;1.75
80394;PMS7003;71133;31.962;118.754;2023-09-19T15:02:42;1.00;1.00;0.25
80394;PMS7003;71133;31.962;118.754;2023-09-19T15:05:11;1.25;1.25;0.75
80394;PMS7003;71133;31.962;118.754;2023-09-19T15:07:38;1.25;1.25;1.00
80394;PMS7003;71133;31.962;118.754;2023-09-19T15:10:05;2.00;2.00;1.25
80394;PMS7003;71133;31.962;118.754;2023-09-19T15:12:38;6.00;3.00;2.00
80394;PMS7003;71133;31.962;118.754;2023-09-19T15:15:05;2.00;2.00;2.00
80394;PMS7003;71133;31.962;118.754;2023-09-19T15:17:35;2.00;2.00;1.00
80394;PMS7003;71133;31.962;118.754;2023-09-19T15:20:04;4.75;4.00;3.00
80394;PMS7003;71133;31.962;118.754;2023-09-19T15:22:35;4.00;3.50;2.00